sensor_id;sensor_type;location;lat;lon;timestamp;temperature;humidity
25504;DHT22;13410;52.114;5.718;2023-04-06T00:00:39;6.00;99.90
25504;DHT22;13410;52.114;5.718;2023-04-06T00:03:04;5.90;99.90
25504;DHT22;13410;52.114;5.718;2023-04-06T00:05:30;6.00;99.90
25504;DHT22;13410;52.114;5.718;2023-04-06T00:07:57;6.00;99.90
25504;DHT22;13410;52.114;5.718;2023-04-06T00:10:23;5.70;99.90
25504;DHT22;13410;52.114;5.718;2023-04-06T00:12:49;5.60;99.90
25504;DHT22;13410;52.114;5.718;2023-04-06T00:15:14;5.60;99.90
25504;DHT22;13410;52.114;5.718;2023-04-06T00:17:40;5.80;99.90
25504;DHT22;13410;52.114;5.718;2023-04-06T00:20:06;5.80;99.90
25504;DHT22;13410;52.114;5.718;2023-04-06T00:22:32;6.00;99.90
25504;DHT22;13410;52.114;5.718;2023-04-06T00:24:57;6.10;99.90
25504;DHT22;13410;52.114;5.718;2023-04-06T00:27:23;5.90;99.90
25504;DHT22;13410;52.114;5.718;2023-04-06T00:29:48;5.90;99.90
25504;DHT22;13410;52.114;5.718;2023-04-06T00:32:14;5.90;99.90
25504;DHT22;13410;52.114;5.718;2023-04-06T00:34:41;6.00;99.90
25504;DHT22;13410;52.114;5.718;2023-04-06T00:37:06;6.10;99.90
25504;DHT22;13410;52.114;5.718;2023-04-06T00:39:32;6.20;99.90
25504;DHT22;13410;52.114;5.718;2023-04-06T00:41:57;6.30;99.90
25504;DHT22;13410;52.114;5.718;2023-04-06T00:44:24;6.20;99.90
25504;DHT22;13410;52.114;5.718;2023-04-06T00:46:50;6.00;99.90
25504;DHT22;13410;52.114;5.718;2023-04-06T00:49:15;6.10;99.90
25504;DHT22;13410;52.114;5.718;2023-04-06T00:51:41;6.10;99.90
25504;DHT22;13410;52.114;5.718;2023-04-06T00:54:06;6.10;99.90
25504;DHT22;13410;52.114;5.718;2023-04-06T00:56:32;6.20;99.90
25504;DHT22;13410;52.114;5.718;2023-04-06T00:58:58;6.20;99.90
25504;DHT22;13410;52.114;5.718;2023-04-06T01:01:24;6.10;99.90
25504;DHT22;13410;52.114;5.718;2023-04-06T01:03:49;6.00;99.90
25504;DHT22;13410;52.114;5.718;2023-04-06T01:06:15;6.00;99.90
25504;DHT22;13410;52.114;5.718;2023-04-06T01:08:41;5.90;99.90
25504;DHT22;13410;52.114;5.718;2023-04-06T01:11:07;5.80;99.90
25504;DHT22;13410;52.114;5.718;2023-04-06T01:13:32;5.80;99.90
25504;DHT22;13410;52.114;5.718;2023-04-06T01:15:58;5.80;99.90
25504;DHT22;13410;52.114;5.718;2023-04-06T01:18:27;5.60;99.90
25504;DHT22;13410;52.114;5.718;2023-04-06T01:20:53;5.60;99.90
25504;DHT22;13410;52.114;5.718;2023-04-06T01:23:19;5.70;99.90
25504;DHT22;13410;52.114;5.718;2023-04-06T01:25:44;5.70;99.90
25504;DHT22;13410;52.114;5.718;2023-04-06T01:28:10;5.60;99.90
25504;DHT22;13410;52.114;5.718;2023-04-06T01:30:36;5.70;99.90
25504;DHT22;13410;52.114;5.718;2023-04-06T01:33:01;5.60;99.90
25504;DHT22;13410;52.114;5.718;2023-04-06T01:35:27;5.70;99.90
25504;DHT22;13410;52.114;5.718;2023-04-06T01:37:55;5.80;99.90
25504;DHT22;13410;52.114;5.718;2023-04-06T01:40:20;5.70;99.90
25504;DHT22;13410;52.114;5.718;2023-04-06T01:42:47;5.90;99.90
25504;DHT22;13410;52.114;5.718;2023-04-06T01:45:12;5.80;99.90
25504;DHT22;13410;52.114;5.718;2023-04-06T01:47:38;5.70;99.90
25504;DHT22;13410;52.114;5.718;2023-04-06T01:50:03;5.80;99.90
25504;DHT22;13410;52.114;5.718;2023-04-06T01:52:32;5.80;99.90
25504;DHT22;13410;52.114;5.718;2023-04-06T01:54:58;5.70;99.90
25504;DHT22;13410;52.114;5.718;2023-04-06T01:57:23;5.70;99.90
25504;DHT22;13410;52.114;5.718;2023-04-06T01:59:50;5.80;99.90
25504;DHT22;13410;52.114;5.718;2023-04-06T02:02:16;5.70;99.90
25504;DHT22;13410;52.114;5.718;2023-04-06T02:04:41;5.80;99.90
25504;DHT22;13410;52.114;5.718;2023-04-06T02:07:07;5.90;99.90
25504;DHT22;13410;52.114;5.718;2023-04-06T02:09:32;5.80;99.90
25504;DHT22;13410;52.114;5.718;2023-04-06T02:11:58;5.60;99.90
25504;DHT22;13410;52.114;5.718;2023-04-06T02:14:25;5.70;99.90
25504;DHT22;13410;52.114;5.718;2023-04-06T02:16:52;5.80;99.90
25504;DHT22;13410;52.114;5.718;2023-04-06T02:19:18;5.70;99.90
25504;DHT22;13410;52.114;5.718;2023-04-06T02:21:43;5.90;99.90
25504;DHT22;13410;52.114;5.718;2023-04-06T02:24:09;5.90;99.90
25504;DHT22;13410;52.114;5.718;2023-04-06T02:26:34;6.00;99.90
25504;DHT22;13410;52.114;5.718;2023-04-06T02:29:01;6.00;99.90
25504;DHT22;13410;52.114;5.718;2023-04-06T02:31:27;6.10;99.90
25504;DHT22;13410;52.114;5.718;2023-04-06T02:33:53;6.00;99.90
25504;DHT22;13410;52.114;5.718;2023-04-06T02:36:19;6.00;99.90
25504;DHT22;13410;52.114;5.718;2023-04-06T02:38:44;6.00;99.90
25504;DHT22;13410;52.114;5.718;2023-04-06T02:41:10;6.10;99.90
25504;DHT22;13410;52.114;5.718;2023-04-06T02:43:35;6.00;99.90
25504;DHT22;13410;52.114;5.718;2023-04-06T02:46:01;6.00;99.90
25504;DHT22;13410;52.114;5.718;2023-04-06T02:48:27;6.00;99.90
25504;DHT22;13410;52.114;5.718;2023-04-06T02:50:52;6.20;99.90
25504;DHT22;13410;52.114;5.718;2023-04-06T02:53:18;6.30;99.90
25504;DHT22;13410;52.114;5.718;2023-04-06T02:55:43;6.40;99.90
25504;DHT22;13410;52.114;5.718;2023-04-06T02:58:09;6.50;99.90
25504;DHT22;13410;52.114;5.718;2023-04-06T03:00:34;6.50;99.90
25504;DHT22;13410;52.114;5.718;2023-04-06T03:03:01;6.50;99.90
25504;DHT22;13410;52.114;5.718;2023-04-06T03:05:26;6.50;99.90
25504;DHT22;13410;52.114;5.718;2023-04-06T03:07:52;6.60;99.90
25504;DHT22;13410;52.114;5.718;2023-04-06T03:10:20;6.50;99.90
25504;DHT22;13410;52.114;5.718;2023-04-06T03:12:46;6.60;99.90
25504;DHT22;13410;52.114;5.718;2023-04-06T03:15:11;6.60;99.90
25504;DHT22;13410;52.114;5.718;2023-04-06T03:17:37;6.60;99.90
25504;DHT22;13410;52.114;5.718;2023-04-06T03:20:03;6.50;99.90
25504;DHT22;13410;52.114;5.718;2023-04-06T03:22:29;6.50;99.90
25504;DHT22;13410;52.114;5.718;2023-04-06T03:24:54;6.70;99.90
25504;DHT22;13410;52.114;5.718;2023-04-06T03:27:20;6.60;99.90
25504;DHT22;13410;52.114;5.718;2023-04-06T03:29:45;6.60;99.90
25504;DHT22;13410;52.114;5.718;2023-04-06T03:32:11;6.60;99.90
25504;DHT22;13410;52.114;5.718;2023-04-06T03:34:38;6.70;99.90
25504;DHT22;13410;52.114;5.718;2023-04-06T03:37:04;6.70;99.90
25504;DHT22;13410;52.114;5.718;2023-04-06T03:39:29;6.70;99.90
25504;DHT22;13410;52.114;5.718;2023-04-06T03:41:55;6.80;99.90
25504;DHT22;13410;52.114;5.718;2023-04-06T03:44:20;7.10;99.90
25504;DHT22;13410;52.114;5.718;2023-04-06T03:46:47;7.00;99.90
25504;DHT22;13410;52.114;5.718;2023-04-06T03:49:13;6.90;99.90
25504;DHT22;13410;52.114;5.718;2023-04-06T03:51:39;7.00;99.90
25504;DHT22;13410;52.114;5.718;2023-04-06T03:54:05;7.00;99.90
25504;DHT22;13410;52.114;5.718;2023-04-06T03:56:30;7.00;99.90
25504;DHT22;13410;52.114;5.718;2023-04-06T03:58:56;7.10;99.90
25504;DHT22;13410;52.114;5.718;2023-04-06T04:01:22;7.00;99.90
25504;DHT22;13410;52.114;5.718;2023-04-06T04:03:47;7.10;99.90
25504;DHT22;13410;52.114;5.718;2023-04-06T04:06:13;7.30;99.90
25504;DHT22;13410;52.114;5.718;2023-04-06T04:08:38;7.20;99.90
25504;DHT22;13410;52.114;5.718;2023-04-06T04:11:04;7.40;99.90
25504;DHT22;13410;52.114;5.718;2023-04-06T04:13:29;7.40;99.90
25504;DHT22;13410;52.114;5.718;2023-04-06T04:15:55;7.30;99.90
25504;DHT22;13410;52.114;5.718;2023-04-06T04:18:20;7.40;99.90
25504;DHT22;13410;52.114;5.718;2023-04-06T04:20:46;7.60;99.90
25504;DHT22;13410;52.114;5.718;2023-04-06T04:23:12;7.50;99.90
25504;DHT22;13410;52.114;5.718;2023-04-06T04:25:37;7.50;99.90
25504;DHT22;13410;52.114;5.718;2023-04-06T04:28:03;7.50;99.90
25504;DHT22;13410;52.114;5.718;2023-04-06T04:30:28;7.60;99.90
25504;DHT22;13410;52.114;5.718;2023-04-06T04:32:54;7.60;99.90
25504;DHT22;13410;52.114;5.718;2023-04-06T04:35:19;7.70;99.90
25504;DHT22;13410;52.114;5.718;2023-04-06T04:37:46;7.60;99.90
25504;DHT22;13410;52.114;5.718;2023-04-06T04:40:12;7.60;99.90
25504;DHT22;13410;52.114;5.718;2023-04-06T04:42:40;7.50;99.90
25504;DHT22;13410;52.114;5.718;2023-04-06T04:45:06;7.50;99.90
25504;DHT22;13410;52.114;5.718;2023-04-06T04:47:32;7.60;99.90
25504;DHT22;13410;52.114;5.718;2023-04-06T04:49:57;7.60;99.90
25504;DHT22;13410;52.114;5.718;2023-04-06T04:52:23;7.60;99.90
25504;DHT22;13410;52.114;5.718;2023-04-06T04:54:48;7.50;99.90
25504;DHT22;13410;52.114;5.718;2023-04-06T04:57:14;7.40;99.90
25504;DHT22;13410;52.114;5.718;2023-04-06T04:59:39;7.50;99.90
25504;DHT22;13410;52.114;5.718;2023-04-06T05:02:05;7.50;99.90
25504;DHT22;13410;52.114;5.718;2023-04-06T05:04:30;7.50;99.90
25504;DHT22;13410;52.114;5.718;2023-04-06T05:07:07;7.60;99.90
25504;DHT22;13410;52.114;5.718;2023-04-06T05:09:33;7.70;99.90
25504;DHT22;13410;52.114;5.718;2023-04-06T05:12:00;7.70;99.90
25504;DHT22;13410;52.114;5.718;2023-04-06T05:14:26;7.70;99.90
25504;DHT22;13410;52.114;5.718;2023-04-06T05:16:52;7.80;99.90
25504;DHT22;13410;52.114;5.718;2023-04-06T05:19:17;7.90;99.90
25504;DHT22;13410;52.114;5.718;2023-04-06T05:21:43;8.20;99.90
25504;DHT22;13410;52.114;5.718;2023-04-06T05:24:10;8.30;99.90
25504;DHT22;13410;52.114;5.718;2023-04-06T05:26:35;8.30;99.90
25504;DHT22;13410;52.114;5.718;2023-04-06T05:29:01;8.40;99.90
25504;DHT22;13410;52.114;5.718;2023-04-06T05:31:27;8.60;99.90
25504;DHT22;13410;52.114;5.718;2023-04-06T05:33:53;8.80;99.90
25504;DHT22;13410;52.114;5.718;2023-04-06T05:36:18;8.90;99.90
25504;DHT22;13410;52.114;5.718;2023-04-06T05:38:44;9.10;99.90
25504;DHT22;13410;52.114;5.718;2023-04-06T05:41:09;9.30;99.90
25504;DHT22;13410;52.114;5.718;2023-04-06T05:43:36;9.40;99.90
25504;DHT22;13410;52.114;5.718;2023-04-06T05:46:01;9.50;99.90
25504;DHT22;13410;52.114;5.718;2023-04-06T05:48:27;9.60;99.90
25504;DHT22;13410;52.114;5.718;2023-04-06T05:50:52;9.60;99.90
25504;DHT22;13410;52.114;5.718;2023-04-06T05:53:19;9.70;99.90
25504;DHT22;13410;52.114;5.718;2023-04-06T05:55:46;9.70;99.90
25504;DHT22;13410;52.114;5.718;2023-04-06T05:58:13;9.90;99.90
25504;DHT22;13410;52.114;5.718;2023-04-06T06:00:39;9.80;99.90
25504;DHT22;13410;52.114;5.718;2023-04-06T06:03:06;9.70;99.90
25504;DHT22;13410;52.114;5.718;2023-04-06T06:05:34;9.70;99.90
25504;DHT22;13410;52.114;5.718;2023-04-06T06:07:59;9.80;99.90
25504;DHT22;13410;52.114;5.718;2023-04-06T06:10:27;9.80;99.90
25504;DHT22;13410;52.114;5.718;2023-04-06T06:12:53;10.00;99.90
25504;DHT22;13410;52.114;5.718;2023-04-06T06:15:18;10.30;99.90
25504;DHT22;13410;52.114;5.718;2023-04-06T06:17:44;11.00;99.90
25504;DHT22;13410;52.114;5.718;2023-04-06T06:20:10;11.50;99.90
25504;DHT22;13410;52.114;5.718;2023-04-06T06:22:35;11.80;99.90
25504;DHT22;13410;52.114;5.718;2023-04-06T06:25:03;12.10;99.90
25504;DHT22;13410;52.114;5.718;2023-04-06T06:27:28;12.00;99.90
25504;DHT22;13410;52.114;5.718;2023-04-06T06:29:54;11.90;99.90
25504;DHT22;13410;52.114;5.718;2023-04-06T06:32:20;11.60;99.90
25504;DHT22;13410;52.114;5.718;2023-04-06T06:34:45;11.70;99.90
25504;DHT22;13410;52.114;5.718;2023-04-06T06:37:11;11.80;99.90
25504;DHT22;13410;52.114;5.718;2023-04-06T06:39:36;12.10;99.90
25504;DHT22;13410;52.114;5.718;2023-04-06T06:42:02;12.40;99.90
25504;DHT22;13410;52.114;5.718;2023-04-06T06:44:28;12.50;99.90
25504;DHT22;13410;52.114;5.718;2023-04-06T06:46:53;12.50;99.90
25504;DHT22;13410;52.114;5.718;2023-04-06T06:49:19;12.50;99.90
25504;DHT22;13410;52.114;5.718;2023-04-06T06:51:45;12.80;99.90
25504;DHT22;13410;52.114;5.718;2023-04-06T06:54:11;12.80;99.90
25504;DHT22;13410;52.114;5.718;2023-04-06T06:56:37;12.80;99.90
25504;DHT22;13410;52.114;5.718;2023-04-06T06:59:03;12.90;99.90
25504;DHT22;13410;52.114;5.718;2023-04-06T07:01:29;13.00;99.90
25504;DHT22;13410;52.114;5.718;2023-04-06T07:03:54;13.00;99.90
25504;DHT22;13410;52.114;5.718;2023-04-06T07:06:20;13.10;99.90
25504;DHT22;13410;52.114;5.718;2023-04-06T07:08:46;13.20;99.90
25504;DHT22;13410;52.114;5.718;2023-04-06T07:11:12;13.00;99.90
25504;DHT22;13410;52.114;5.718;2023-04-06T07:13:37;13.20;99.90
25504;DHT22;13410;52.114;5.718;2023-04-06T07:16:04;13.20;99.90
25504;DHT22;13410;52.114;5.718;2023-04-06T07:18:30;13.20;99.90
25504;DHT22;13410;52.114;5.718;2023-04-06T07:20:57;13.40;99.90
25504;DHT22;13410;52.114;5.718;2023-04-06T07:23:22;13.60;99.90
25504;DHT22;13410;52.114;5.718;2023-04-06T07:25:51;13.80;99.90
25504;DHT22;13410;52.114;5.718;2023-04-06T07:28:17;14.00;99.90
25504;DHT22;13410;52.114;5.718;2023-04-06T07:30:43;14.20;99.90
25504;DHT22;13410;52.114;5.718;2023-04-06T07:33:09;14.50;99.90
25504;DHT22;13410;52.114;5.718;2023-04-06T07:35:34;14.70;99.90
25504;DHT22;13410;52.114;5.718;2023-04-06T07:38:02;15.00;99.90
25504;DHT22;13410;52.114;5.718;2023-04-06T07:40:28;15.10;99.90
25504;DHT22;13410;52.114;5.718;2023-04-06T07:42:53;15.30;99.90
25504;DHT22;13410;52.114;5.718;2023-04-06T07:45:21;15.30;99.90
25504;DHT22;13410;52.114;5.718;2023-04-06T07:47:47;15.30;99.90
25504;DHT22;13410;52.114;5.718;2023-04-06T07:50:12;15.30;99.90
25504;DHT22;13410;52.114;5.718;2023-04-06T07:52:39;15.50;99.90
25504;DHT22;13410;52.114;5.718;2023-04-06T07:55:04;15.40;99.90
25504;DHT22;13410;52.114;5.718;2023-04-06T07:57:30;15.30;99.90
25504;DHT22;13410;52.114;5.718;2023-04-06T07:59:56;14.90;99.90
25504;DHT22;13410;52.114;5.718;2023-04-06T08:02:21;14.70;99.90
25504;DHT22;13410;52.114;5.718;2023-04-06T08:04:47;14.90;99.90
25504;DHT22;13410;52.114;5.718;2023-04-06T08:07:13;14.50;99.90
25504;DHT22;13410;52.114;5.718;2023-04-06T08:09:40;14.30;99.90
25504;DHT22;13410;52.114;5.718;2023-04-06T08:12:05;14.30;99.90
25504;DHT22;13410;52.114;5.718;2023-04-06T08:14:31;14.40;99.90
25504;DHT22;13410;52.114;5.718;2023-04-06T08:16:56;14.50;99.90
25504;DHT22;13410;52.114;5.718;2023-04-06T08:19:22;14.60;99.90
25504;DHT22;13410;52.114;5.718;2023-04-06T08:21:48;14.60;99.90
25504;DHT22;13410;52.114;5.718;2023-04-06T08:24:14;14.60;99.90
25504;DHT22;13410;52.114;5.718;2023-04-06T08:26:40;14.70;99.90
25504;DHT22;13410;52.114;5.718;2023-04-06T08:29:06;14.70;99.90
25504;DHT22;13410;52.114;5.718;2023-04-06T08:31:34;14.90;99.90
25504;DHT22;13410;52.114;5.718;2023-04-06T08:34:04;14.80;99.90
25504;DHT22;13410;52.114;5.718;2023-04-06T08:36:30;14.80;99.90
25504;DHT22;13410;52.114;5.718;2023-04-06T08:38:56;15.00;99.90
25504;DHT22;13410;52.114;5.718;2023-04-06T08:41:22;15.10;99.90
25504;DHT22;13410;52.114;5.718;2023-04-06T08:44:06;15.10;99.90
25504;DHT22;13410;52.114;5.718;2023-04-06T08:46:32;14.90;99.90
25504;DHT22;13410;52.114;5.718;2023-04-06T08:49:00;15.10;99.90
25504;DHT22;13410;52.114;5.718;2023-04-06T08:51:27;15.30;99.90
25504;DHT22;13410;52.114;5.718;2023-04-06T08:53:54;15.50;99.90
25504;DHT22;13410;52.114;5.718;2023-04-06T08:56:21;15.70;99.90
25504;DHT22;13410;52.114;5.718;2023-04-06T08:58:47;15.50;99.90
25504;DHT22;13410;52.114;5.718;2023-04-06T09:01:14;15.40;99.90
25504;DHT22;13410;52.114;5.718;2023-04-06T09:03:43;15.40;99.90
25504;DHT22;13410;52.114;5.718;2023-04-06T09:06:11;15.40;99.90
25504;DHT22;13410;52.114;5.718;2023-04-06T09:08:39;15.90;99.90
25504;DHT22;13410;52.114;5.718;2023-04-06T09:11:05;16.10;99.90
25504;DHT22;13410;52.114;5.718;2023-04-06T09:13:31;16.30;99.90
25504;DHT22;13410;52.114;5.718;2023-04-06T09:16:04;16.30;99.90
25504;DHT22;13410;52.114;5.718;2023-04-06T09:18:32;16.30;99.90
25504;DHT22;13410;52.114;5.718;2023-04-06T09:21:03;16.40;99.90
25504;DHT22;13410;52.114;5.718;2023-04-06T09:23:29;16.30;99.90
25504;DHT22;13410;52.114;5.718;2023-04-06T09:26:10;16.40;99.90
25504;DHT22;13410;52.114;5.718;2023-04-06T09:28:47;16.10;99.90
25504;DHT22;13410;52.114;5.718;2023-04-06T09:31:16;16.30;99.90
25504;DHT22;13410;52.114;5.718;2023-04-06T09:33:44;16.40;99.90
25504;DHT22;13410;52.114;5.718;2023-04-06T09:36:12;16.50;99.90
25504;DHT22;13410;52.114;5.718;2023-04-06T09:41:31;16.70;99.90
25504;DHT22;13410;52.114;5.718;2023-04-06T09:44:12;16.60;99.90
25504;DHT22;13410;52.114;5.718;2023-04-06T09:46:40;16.70;99.90
25504;DHT22;13410;52.114;5.718;2023-04-06T09:49:07;16.70;99.90
25504;DHT22;13410;52.114;5.718;2023-04-06T09:51:55;17.10;99.90
25504;DHT22;13410;52.114;5.718;2023-04-06T09:54:22;17.40;99.90
25504;DHT22;13410;52.114;5.718;2023-04-06T09:57:03;17.50;99.90
25504;DHT22;13410;52.114;5.718;2023-04-06T09:59:39;17.80;99.90
25504;DHT22;13410;52.114;5.718;2023-04-06T10:02:15;17.60;99.90
25504;DHT22;13410;52.114;5.718;2023-04-06T10:07:07;17.20;99.90
25504;DHT22;13410;52.114;5.718;2023-04-06T10:09:34;17.20;99.90
25504;DHT22;13410;52.114;5.718;2023-04-06T10:12:05;17.30;99.90
25504;DHT22;13410;52.114;5.718;2023-04-06T10:14:33;17.40;99.90
25504;DHT22;13410;52.114;5.718;2023-04-06T10:17:01;17.50;99.90
25504;DHT22;13410;52.114;5.718;2023-04-06T10:19:34;17.70;99.90
25504;DHT22;13410;52.114;5.718;2023-04-06T10:22:03;17.60;99.90
25504;DHT22;13410;52.114;5.718;2023-04-06T10:24:29;17.60;99.90
25504;DHT22;13410;52.114;5.718;2023-04-06T10:27:02;17.60;99.90
25504;DHT22;13410;52.114;5.718;2023-04-06T10:29:40;17.40;99.90
25504;DHT22;13410;52.114;5.718;2023-04-06T10:32:06;17.40;99.90
25504;DHT22;13410;52.114;5.718;2023-04-06T10:34:35;17.50;99.90
25504;DHT22;13410;52.114;5.718;2023-04-06T10:37:14;17.60;99.90
25504;DHT22;13410;52.114;5.718;2023-04-06T10:39:52;17.70;99.90
25504;DHT22;13410;52.114;5.718;2023-04-06T10:42:37;17.70;99.90
25504;DHT22;13410;52.114;5.718;2023-04-06T10:45:06;17.90;99.90
25504;DHT22;13410;52.114;5.718;2023-04-06T10:47:41;18.10;99.90
25504;DHT22;13410;52.114;5.718;2023-04-06T10:50:08;18.40;99.90
25504;DHT22;13410;52.114;5.718;2023-04-06T10:52:35;18.50;99.90
25504;DHT22;13410;52.114;5.718;2023-04-06T10:55:01;18.40;99.90
25504;DHT22;13410;52.114;5.718;2023-04-06T10:57:30;18.30;99.90
25504;DHT22;13410;52.114;5.718;2023-04-06T10:59:58;18.20;99.90
25504;DHT22;13410;52.114;5.718;2023-04-06T11:02:24;18.00;99.90
25504;DHT22;13410;52.114;5.718;2023-04-06T11:04:59;17.90;99.90
25504;DHT22;13410;52.114;5.718;2023-04-06T11:07:26;17.80;99.90
25504;DHT22;13410;52.114;5.718;2023-04-06T11:09:52;17.80;99.90
25504;DHT22;13410;52.114;5.718;2023-04-06T11:12:23;17.70;99.90
25504;DHT22;13410;52.114;5.718;2023-04-06T11:14:56;17.80;99.90
25504;DHT22;13410;52.114;5.718;2023-04-06T11:17:27;18.00;99.90
25504;DHT22;13410;52.114;5.718;2023-04-06T11:19:53;18.00;99.90
25504;DHT22;13410;52.114;5.718;2023-04-06T11:22:20;17.90;99.90
25504;DHT22;13410;52.114;5.718;2023-04-06T11:24:46;17.60;99.90
25504;DHT22;13410;52.114;5.718;2023-04-06T11:27:12;17.60;99.90
25504;DHT22;13410;52.114;5.718;2023-04-06T11:29:38;17.40;99.90
25504;DHT22;13410;52.114;5.718;2023-04-06T11:32:04;17.20;99.90
25504;DHT22;13410;52.114;5.718;2023-04-06T11:34:34;17.10;99.90
25504;DHT22;13410;52.114;5.718;2023-04-06T11:37:08;17.00;99.90
25504;DHT22;13410;52.114;5.718;2023-04-06T11:39:38;17.10;99.90
25504;DHT22;13410;52.114;5.718;2023-04-06T11:42:04;17.10;99.90
25504;DHT22;13410;52.114;5.718;2023-04-06T11:44:35;17.10;99.90
25504;DHT22;13410;52.114;5.718;2023-04-06T11:47:01;16.80;99.90
25504;DHT22;13410;52.114;5.718;2023-04-06T11:49:31;16.50;99.90
25504;DHT22;13410;52.114;5.718;2023-04-06T11:51:58;16.50;99.90
25504;DHT22;13410;52.114;5.718;2023-04-06T11:54:37;16.40;99.90
25504;DHT22;13410;52.114;5.718;2023-04-06T11:57:05;16.20;99.90
25504;DHT22;13410;52.114;5.718;2023-04-06T11:59:32;16.10;99.90
25504;DHT22;13410;52.114;5.718;2023-04-06T12:01:58;15.90;99.90
25504;DHT22;13410;52.114;5.718;2023-04-06T12:04:24;15.90;99.90
25504;DHT22;13410;52.114;5.718;2023-04-06T12:06:50;15.60;99.90
25504;DHT22;13410;52.114;5.718;2023-04-06T12:09:16;15.50;99.90
25504;DHT22;13410;52.114;5.718;2023-04-06T12:11:46;15.40;99.90
25504;DHT22;13410;52.114;5.718;2023-04-06T12:14:12;15.40;99.90
25504;DHT22;13410;52.114;5.718;2023-04-06T12:16:39;15.10;99.90
25504;DHT22;13410;52.114;5.718;2023-04-06T12:19:05;15.20;99.90
25504;DHT22;13410;52.114;5.718;2023-04-06T12:21:34;15.10;99.90
25504;DHT22;13410;52.114;5.718;2023-04-06T12:24:04;15.10;99.90
25504;DHT22;13410;52.114;5.718;2023-04-06T12:26:30;15.30;99.90
25504;DHT22;13410;52.114;5.718;2023-04-06T12:28:56;15.20;99.90
25504;DHT22;13410;52.114;5.718;2023-04-06T12:31:22;15.10;99.90
25504;DHT22;13410;52.114;5.718;2023-04-06T12:33:50;14.90;99.90
25504;DHT22;13410;52.114;5.718;2023-04-06T12:36:17;14.90;99.90
25504;DHT22;13410;52.114;5.718;2023-04-06T12:38:49;14.90;99.90
25504;DHT22;13410;52.114;5.718;2023-04-06T12:41:17;14.90;99.90
25504;DHT22;13410;52.114;5.718;2023-04-06T12:43:43;15.20;99.90
25504;DHT22;13410;52.114;5.718;2023-04-06T12:46:10;15.00;99.90
25504;DHT22;13410;52.114;5.718;2023-04-06T12:48:36;14.80;99.90
25504;DHT22;13410;52.114;5.718;2023-04-06T12:51:04;14.80;99.90
25504;DHT22;13410;52.114;5.718;2023-04-06T12:53:30;14.70;99.90
25504;DHT22;13410;52.114;5.718;2023-04-06T12:55:56;14.50;99.90
25504;DHT22;13410;52.114;5.718;2023-04-06T12:58:23;14.50;99.90
25504;DHT22;13410;52.114;5.718;2023-04-06T13:00:49;14.60;99.90
25504;DHT22;13410;52.114;5.718;2023-04-06T13:03:17;14.20;99.90
25504;DHT22;13410;52.114;5.718;2023-04-06T13:05:50;14.00;99.90
25504;DHT22;13410;52.114;5.718;2023-04-06T13:08:17;14.30;99.90
25504;DHT22;13410;52.114;5.718;2023-04-06T13:10:44;14.50;99.90
25504;DHT22;13410;52.114;5.718;2023-04-06T13:13:09;14.30;99.90
25504;DHT22;13410;52.114;5.718;2023-04-06T13:15:35;14.50;99.90
25504;DHT22;13410;52.114;5.718;2023-04-06T13:18:02;14.40;99.90
25504;DHT22;13410;52.114;5.718;2023-04-06T13:20:27;14.50;99.90
25504;DHT22;13410;52.114;5.718;2023-04-06T13:22:53;14.30;99.90
25504;DHT22;13410;52.114;5.718;2023-04-06T13:25:18;14.10;99.90
25504;DHT22;13410;52.114;5.718;2023-04-06T13:27:44;14.10;99.90
25504;DHT22;13410;52.114;5.718;2023-04-06T13:30:13;14.20;99.90
25504;DHT22;13410;52.114;5.718;2023-04-06T13:32:38;14.20;99.90
25504;DHT22;13410;52.114;5.718;2023-04-06T13:35:04;14.20;99.90
25504;DHT22;13410;52.114;5.718;2023-04-06T13:37:30;14.00;99.90
25504;DHT22;13410;52.114;5.718;2023-04-06T13:39:56;13.80;99.90
25504;DHT22;13410;52.114;5.718;2023-04-06T13:42:22;13.70;99.90
25504;DHT22;13410;52.114;5.718;2023-04-06T13:44:48;13.40;99.90
25504;DHT22;13410;52.114;5.718;2023-04-06T13:47:16;13.30;99.90
25504;DHT22;13410;52.114;5.718;2023-04-06T13:49:41;13.40;99.90
25504;DHT22;13410;52.114;5.718;2023-04-06T13:52:07;13.40;99.90
25504;DHT22;13410;52.114;5.718;2023-04-06T13:54:32;13.20;99.90
25504;DHT22;13410;52.114;5.718;2023-04-06T13:56:58;13.20;99.90
25504;DHT22;13410;52.114;5.718;2023-04-06T13:59:23;13.10;99.90
25504;DHT22;13410;52.114;5.718;2023-04-06T14:01:49;12.90;99.90
25504;DHT22;13410;52.114;5.718;2023-04-06T14:04:14;12.90;99.90
25504;DHT22;13410;52.114;5.718;2023-04-06T14:06:40;12.70;99.90
25504;DHT22;13410;52.114;5.718;2023-04-06T14:09:05;12.70;99.90
25504;DHT22;13410;52.114;5.718;2023-04-06T14:11:32;12.90;99.90
25504;DHT22;13410;52.114;5.718;2023-04-06T14:13:59;13.20;99.90
25504;DHT22;13410;52.114;5.718;2023-04-06T14:16:24;13.20;99.90
25504;DHT22;13410;52.114;5.718;2023-04-06T14:18:50;13.50;99.90
25504;DHT22;13410;52.114;5.718;2023-04-06T14:21:17;13.40;99.90
25504;DHT22;13410;52.114;5.718;2023-04-06T14:23:43;13.50;99.90
25504;DHT22;13410;52.114;5.718;2023-04-06T14:26:09;13.50;99.90
25504;DHT22;13410;52.114;5.718;2023-04-06T14:28:35;13.40;99.90
25504;DHT22;13410;52.114;5.718;2023-04-06T14:31:08;13.10;99.90
25504;DHT22;13410;52.114;5.718;2023-04-06T14:33:34;13.10;99.90
25504;DHT22;13410;52.114;5.718;2023-04-06T14:36:03;13.20;99.90
25504;DHT22;13410;52.114;5.718;2023-04-06T14:38:28;13.20;99.90
25504;DHT22;13410;52.114;5.718;2023-04-06T14:40:54;13.00;99.90
25504;DHT22;13410;52.114;5.718;2023-04-06T14:43:21;13.20;99.90
25504;DHT22;13410;52.114;5.718;2023-04-06T14:45:47;13.30;99.90
25504;DHT22;13410;52.114;5.718;2023-04-06T14:48:12;13.40;99.90
25504;DHT22;13410;52.114;5.718;2023-04-06T14:50:39;13.30;99.90
25504;DHT22;13410;52.114;5.718;2023-04-06T14:53:04;13.20;99.90
25504;DHT22;13410;52.114;5.718;2023-04-06T14:55:30;13.30;99.90
25504;DHT22;13410;52.114;5.718;2023-04-06T14:57:56;13.10;99.90
25504;DHT22;13410;52.114;5.718;2023-04-06T15:00:22;13.10;99.90
25504;DHT22;13410;52.114;5.718;2023-04-06T15:02:47;13.10;99.90
25504;DHT22;13410;52.114;5.718;2023-04-06T15:05:13;13.00;99.90
25504;DHT22;13410;52.114;5.718;2023-04-06T15:07:39;12.90;99.90
25504;DHT22;13410;52.114;5.718;2023-04-06T15:10:05;12.90;99.90
25504;DHT22;13410;52.114;5.718;2023-04-06T15:12:35;12.90;99.90
25504;DHT22;13410;52.114;5.718;2023-04-06T15:15:01;12.70;99.90
25504;DHT22;13410;52.114;5.718;2023-04-06T15:17:27;12.60;99.90
25504;DHT22;13410;52.114;5.718;2023-04-06T15:19:52;12.70;99.90
25504;DHT22;13410;52.114;5.718;2023-04-06T15:22:18;12.70;99.90
25504;DHT22;13410;52.114;5.718;2023-04-06T15:24:44;12.50;99.90
25504;DHT22;13410;52.114;5.718;2023-04-06T15:27:10;12.30;99.90
25504;DHT22;13410;52.114;5.718;2023-04-06T15:29:35;12.40;99.90
25504;DHT22;13410;52.114;5.718;2023-04-06T15:32:02;12.50;99.90
25504;DHT22;13410;52.114;5.718;2023-04-06T15:34:30;12.70;99.90
25504;DHT22;13410;52.114;5.718;2023-04-06T15:37:00;12.60;99.90
25504;DHT22;13410;52.114;5.718;2023-04-06T15:39:26;12.60;99.90